Kezdőlap
METAR-TAF:

METAR-TAF

Repülőterek :

Caracas, Venezuela

földrajzi szélesség: 10-36N, földrajzi hosszúság: 066-59W, magasság: 43 m

Jelenlegi meteorológiai megfigyelések

A jelentés 36 perccel ezelõtt készült, 00:03 UTC
Kelet-északkeleti szél 6 kt
Hőmérséklet 29°C
Páratartalom 66%
Légköri nyomás 1014 hPa

METAR: SVMI 210003Z AUTO 07006KT NCD 29/22 Q1014

Idő: 20:39 (00:39 UTC)

Előrejelzés

A jelentés 2 órával és 39 perccel ezelõtt készült, 22:00 UTC
Az előrejelzés 21-én 00 óra UTC és 22-én 00 óra UTC között érvényes
Keleti szél 4 kt
Látótávolság 10 km, vagy több
Szórványos felhőzet 8000 lábon
21-én 02 óra UTC és 21-én 06 óra UTC között ideiglenes
Kelet-északkeleti szél 5 kt
Látótávolság 10 km, vagy több
Szórványos felhőzet 1600 lábon
Szórványos felhőzet 10000 lábon

TAF: SVMI 202200Z 2100/2200 09004KT 9999 SCT080 TX34/2118Z TN23/2107Z TEMPO 2102/2106 06005KT 9999 SCT016 SCT100

Meteorológiai megfigyelések és előrejelzések több, mint 4000 repülőtéren (METAR és TAF jelentéseket).

A térképen piros és sárga pontok jelzik az elérhető meteorológiai állomásokat.

Mozgassa az egeret a pont fölött, hogy megjelenjen az állomás neve.

Azután kattintson az időjárási megfigyelések és előrejelzések megtekintéséhez.

A térkép megváltoztatása: kattintson a fekete keresztel jelölt zöld gombra ráközelítéshez, a vonallal jelölt zöld gombra távolításhoz, vagy a zöld nyilakra a szomszédos térképek eléréséhez.


METAR-TAF: